sensor_id;sensor_type;location;lat;lon;timestamp;P1;durP1;ratioP1;P2;durP2;ratioP2
64791;SDS011;51226;47.504;19.074;2022-08-18T16:12:51;9.90;;;4.70;;
64791;SDS011;51226;47.504;19.074;2022-08-18T16:15:54;9.23;;;4.80;;
64791;SDS011;51226;47.504;19.074;2022-08-18T16:18:58;5.85;;;4.15;;
64791;SDS011;51226;47.504;19.074;2022-08-18T16:22:01;7.50;;;4.30;;
64791;SDS011;51226;47.504;19.074;2022-08-18T16:25:08;6.30;;;5.20;;
64791;SDS011;51226;47.504;19.074;2022-08-18T16:28:11;5.43;;;4.22;;
64791;SDS011;51226;47.504;19.074;2022-08-18T16:31:14;8.40;;;4.20;;
64791;SDS011;51226;47.504;19.074;2022-08-18T16:34:17;6.62;;;4.57;;
64791;SDS011;51226;47.504;19.074;2022-08-18T16:37:20;6.53;;;4.45;;
64791;SDS011;51226;47.504;19.074;2022-08-18T16:40:23;4.90;;;4.15;;
64791;SDS011;51226;47.504;19.074;2022-08-18T16:43:29;9.00;;;4.32;;
64791;SDS011;51226;47.504;19.074;2022-08-18T16:46:32;5.85;;;4.05;;
64791;SDS011;51226;47.504;19.074;2022-08-18T16:49:34;7.07;;;4.55;;
64791;SDS011;51226;47.504;19.074;2022-08-18T16:52:38;6.30;;;4.43;;
64791;SDS011;51226;47.504;19.074;2022-08-18T16:55:41;9.20;;;4.60;;
64791;SDS011;51226;47.504;19.074;2022-08-18T16:58:44;7.35;;;4.35;;
64791;SDS011;51226;47.504;19.074;2022-08-18T17:02:08;8.70;;;5.30;;
64791;SDS011;51226;47.504;19.074;2022-08-18T17:05:30;5.93;;;4.50;;
64791;SDS011;51226;47.504;19.074;2022-08-18T17:08:36;7.60;;;4.43;;
64791;SDS011;51226;47.504;19.074;2022-08-18T17:11:40;8.98;;;4.70;;
64791;SDS011;51226;47.504;19.074;2022-08-18T17:14:53;8.60;;;4.62;;
64791;SDS011;51226;47.504;19.074;2022-08-18T17:17:57;9.05;;;4.78;;
64791;SDS011;51226;47.504;19.074;2022-08-18T17:21:02;6.20;;;4.40;;
64791;SDS011;51226;47.504;19.074;2022-08-18T17:24:09;10.73;;;4.45;;
64791;SDS011;51226;47.504;19.074;2022-08-18T17:27:17;6.93;;;4.87;;
64791;SDS011;51226;47.504;19.074;2022-08-18T17:30:32;8.55;;;4.28;;
64791;SDS011;51226;47.504;19.074;2022-08-18T17:33:39;6.30;;;4.57;;
64791;SDS011;51226;47.504;19.074;2022-08-18T17:36:53;7.70;;;5.40;;
64791;SDS011;51226;47.504;19.074;2022-08-18T17:40:06;9.27;;;5.53;;
64791;SDS011;51226;47.504;19.074;2022-08-18T17:43:18;8.75;;;5.57;;
64791;SDS011;51226;47.504;19.074;2022-08-18T17:46:29;7.05;;;4.15;;
64791;SDS011;51226;47.504;19.074;2022-08-18T17:49:41;7.95;;;4.68;;
64791;SDS011;51226;47.504;19.074;2022-08-18T17:53:24;11.73;;;6.03;;
64791;SDS011;51226;47.504;19.074;2022-08-18T17:56:28;8.90;;;5.10;;
64791;SDS011;51226;47.504;19.074;2022-08-18T17:59:40;11.12;;;6.10;;
64791;SDS011;51226;47.504;19.074;2022-08-18T18:02:53;11.15;;;5.78;;
64791;SDS011;51226;47.504;19.074;2022-08-18T18:06:13;6.20;;;5.20;;
64791;SDS011;51226;47.504;19.074;2022-08-18T18:12:24;6.47;;;5.68;;
64791;SDS011;51226;47.504;19.074;2022-08-18T18:15:30;9.88;;;5.93;;
64791;SDS011;51226;47.504;19.074;2022-08-18T18:22:06;6.97;;;5.47;;
64791;SDS011;51226;47.504;19.074;2022-08-18T18:25:21;8.57;;;6.10;;
64791;SDS011;51226;47.504;19.074;2022-08-18T18:28:36;9.18;;;5.57;;
64791;SDS011;51226;47.504;19.074;2022-08-18T18:31:39;7.78;;;5.70;;
64791;SDS011;51226;47.504;19.074;2022-08-18T18:34:45;10.57;;;5.90;;
64791;SDS011;51226;47.504;19.074;2022-08-18T18:38:05;13.70;;;6.12;;
64791;SDS011;51226;47.504;19.074;2022-08-18T18:41:26;6.10;;;5.50;;
64791;SDS011;51226;47.504;19.074;2022-08-18T18:44:29;14.48;;;6.72;;
64791;SDS011;51226;47.504;19.074;2022-08-18T18:51:02;10.35;;;6.82;;
64791;SDS011;51226;47.504;19.074;2022-08-18T19:01:12;11.57;;;7.10;;
64791;SDS011;51226;47.504;19.074;2022-08-18T19:04:35;8.73;;;6.87;;
64791;SDS011;51226;47.504;19.074;2022-08-18T19:15:06;15.45;;;6.95;;
64791;SDS011;51226;47.504;19.074;2022-08-18T19:18:19;9.52;;;7.25;;
64791;SDS011;51226;47.504;19.074;2022-08-18T19:21:24;10.43;;;7.87;;
64791;SDS011;51226;47.504;19.074;2022-08-18T19:28:17;9.20;;;6.97;;
64791;SDS011;51226;47.504;19.074;2022-08-18T19:31:31;10.05;;;8.07;;
64791;SDS011;51226;47.504;19.074;2022-08-18T19:34:40;9.13;;;7.12;;
64791;SDS011;51226;47.504;19.074;2022-08-18T19:38:05;8.98;;;7.72;;
64791;SDS011;51226;47.504;19.074;2022-08-18T19:41:18;10.57;;;8.40;;
64791;SDS011;51226;47.504;19.074;2022-08-18T19:44:50;10.50;;;8.38;;
64791;SDS011;51226;47.504;19.074;2022-08-18T19:48:27;13.88;;;8.32;;
64791;SDS011;51226;47.504;19.074;2022-08-18T19:51:51;13.50;;;8.88;;
64791;SDS011;51226;47.504;19.074;2022-08-18T19:55:10;10.63;;;8.10;;
64791;SDS011;51226;47.504;19.074;2022-08-18T20:12:51;8.95;;;8.10;;
64791;SDS011;51226;47.504;19.074;2022-08-18T20:19:02;10.00;;;8.45;;
64791;SDS011;51226;47.504;19.074;2022-08-18T20:22:43;14.75;;;8.90;;
64791;SDS011;51226;47.504;19.074;2022-08-18T20:25:49;9.70;;;8.80;;
64791;SDS011;51226;47.504;19.074;2022-08-18T20:28:51;10.57;;;8.52;;
64791;SDS011;51226;47.504;19.074;2022-08-18T20:31:59;9.40;;;8.50;;
64791;SDS011;51226;47.504;19.074;2022-08-18T20:35:17;13.48;;;9.13;;
64791;SDS011;51226;47.504;19.074;2022-08-18T20:38:28;11.07;;;8.87;;
64791;SDS011;51226;47.504;19.074;2022-08-18T20:41:42;9.45;;;8.65;;
64791;SDS011;51226;47.504;19.074;2022-08-18T20:51:40;9.90;;;8.77;;
64791;SDS011;51226;47.504;19.074;2022-08-18T20:54:58;12.13;;;8.52;;
64791;SDS011;51226;47.504;19.074;2022-08-18T20:58:16;13.65;;;9.63;;
64791;SDS011;51226;47.504;19.074;2022-08-18T21:01:26;10.90;;;9.82;;
64791;SDS011;51226;47.504;19.074;2022-08-18T21:04:35;10.30;;;9.27;;
64791;SDS011;51226;47.504;19.074;2022-08-18T21:07:58;9.70;;;8.70;;
64791;SDS011;51226;47.504;19.074;2022-08-18T21:11:22;11.85;;;9.68;;
64791;SDS011;51226;47.504;19.074;2022-08-18T21:14:49;10.27;;;9.07;;
64791;SDS011;51226;47.504;19.074;2022-08-18T21:17:56;11.63;;;8.73;;
64791;SDS011;51226;47.504;19.074;2022-08-18T21:21:01;10.23;;;9.15;;
64791;SDS011;51226;47.504;19.074;2022-08-18T21:24:15;9.27;;;8.38;;
64791;SDS011;51226;47.504;19.074;2022-08-18T21:27:25;11.07;;;9.43;;
64791;SDS011;51226;47.504;19.074;2022-08-18T21:30:42;9.80;;;8.82;;
64791;SDS011;51226;47.504;19.074;2022-08-18T21:33:57;10.18;;;9.07;;
64791;SDS011;51226;47.504;19.074;2022-08-18T21:37:02;12.95;;;9.57;;
64791;SDS011;51226;47.504;19.074;2022-08-18T21:40:11;11.35;;;8.88;;
64791;SDS011;51226;47.504;19.074;2022-08-18T21:46:50;9.85;;;8.65;;
64791;SDS011;51226;47.504;19.074;2022-08-18T21:50:11;10.15;;;9.20;;
64791;SDS011;51226;47.504;19.074;2022-08-18T21:53:19;13.18;;;10.43;;
64791;SDS011;51226;47.504;19.074;2022-08-18T21:56:31;11.30;;;10.30;;
64791;SDS011;51226;47.504;19.074;2022-08-18T21:59:35;10.65;;;9.63;;
64791;SDS011;51226;47.504;19.074;2022-08-18T22:02:38;10.63;;;9.70;;
64791;SDS011;51226;47.504;19.074;2022-08-18T22:05:44;11.75;;;9.80;;
64791;SDS011;51226;47.504;19.074;2022-08-18T22:09:04;10.70;;;9.65;;
64791;SDS011;51226;47.504;19.074;2022-08-18T22:12:35;10.30;;;9.23;;
64791;SDS011;51226;47.504;19.074;2022-08-18T22:15:57;11.57;;;8.98;;
64791;SDS011;51226;47.504;19.074;2022-08-18T22:19:07;10.38;;;9.35;;
64791;SDS011;51226;47.504;19.074;2022-08-18T22:22:29;10.23;;;9.23;;
64791;SDS011;51226;47.504;19.074;2022-08-18T22:25:52;10.45;;;9.43;;
64791;SDS011;51226;47.504;19.074;2022-08-18T22:32:35;10.25;;;9.20;;
64791;SDS011;51226;47.504;19.074;2022-08-18T22:35:39;11.50;;;9.75;;
64791;SDS011;51226;47.504;19.074;2022-08-18T22:38:42;11.77;;;10.55;;
64791;SDS011;51226;47.504;19.074;2022-08-18T22:41:46;10.02;;;9.02;;
64791;SDS011;51226;47.504;19.074;2022-08-18T22:44:48;10.38;;;9.35;;
64791;SDS011;51226;47.504;19.074;2022-08-18T22:47:51;11.25;;;10.15;;
64791;SDS011;51226;47.504;19.074;2022-08-18T22:50:54;10.60;;;9.63;;
64791;SDS011;51226;47.504;19.074;2022-08-18T22:54:00;10.60;;;9.27;;
64791;SDS011;51226;47.504;19.074;2022-08-18T22:57:04;12.43;;;9.90;;
64791;SDS011;51226;47.504;19.074;2022-08-18T23:00:08;10.88;;;9.52;;
64791;SDS011;51226;47.504;19.074;2022-08-18T23:03:14;10.30;;;9.30;;
64791;SDS011;51226;47.504;19.074;2022-08-18T23:06:17;10.55;;;9.45;;
64791;SDS011;51226;47.504;19.074;2022-08-18T23:09:24;10.82;;;9.82;;
64791;SDS011;51226;47.504;19.074;2022-08-18T23:12:28;10.52;;;9.52;;
64791;SDS011;51226;47.504;19.074;2022-08-18T23:15:35;11.85;;;9.95;;
64791;SDS011;51226;47.504;19.074;2022-08-18T23:18:49;15.75;;;9.95;;
64791;SDS011;51226;47.504;19.074;2022-08-18T23:21:53;11.70;;;9.68;;
64791;SDS011;51226;47.504;19.074;2022-08-18T23:24:56;10.70;;;9.60;;
64791;SDS011;51226;47.504;19.074;2022-08-18T23:27:59;12.45;;;10.23;;
64791;SDS011;51226;47.504;19.074;2022-08-18T23:31:03;11.43;;;10.10;;
64791;SDS011;51226;47.504;19.074;2022-08-18T23:34:06;10.73;;;9.45;;
64791;SDS011;51226;47.504;19.074;2022-08-18T23:37:09;11.15;;;9.55;;
64791;SDS011;51226;47.504;19.074;2022-08-18T23:40:12;10.93;;;9.60;;
64791;SDS011;51226;47.504;19.074;2022-08-18T23:43:18;12.95;;;10.52;;
64791;SDS011;51226;47.504;19.074;2022-08-18T23:46:23;11.40;;;10.27;;
64791;SDS011;51226;47.504;19.074;2022-08-18T23:49:29;11.60;;;10.57;;
64791;SDS011;51226;47.504;19.074;2022-08-18T23:52:32;11.98;;;9.98;;
64791;SDS011;51226;47.504;19.074;2022-08-18T23:55:35;10.95;;;9.85;;
64791;SDS011;51226;47.504;19.074;2022-08-18T23:58:39;13.07;;;9.75;;
